createdAt,value
2023-03-11T00:01:48.331Z,7.10
2023-03-11T00:04:16.757Z,5.33
2023-03-11T00:06:45.129Z,6.33
2023-03-11T00:09:15.069Z,5.17
2023-03-11T00:11:43.425Z,5.53
2023-03-11T00:14:11.872Z,7.63
2023-03-11T00:16:40.305Z,5.87
2023-03-11T00:19:08.723Z,6.80
2023-03-11T00:21:37.341Z,8.00
2023-03-11T00:24:05.841Z,5.93
2023-03-11T00:26:35.561Z,3.80
2023-03-11T00:29:03.918Z,3.77
2023-03-11T00:31:32.665Z,6.50
2023-03-11T00:34:01.109Z,6.37
2023-03-11T00:36:31.530Z,4.00
2023-03-11T00:39:00.265Z,5.83
2023-03-11T00:41:28.628Z,5.57
2023-03-11T00:43:58.420Z,7.10
2023-03-11T00:46:26.902Z,5.83
2023-03-11T00:48:55.377Z,9.27
2023-03-11T00:51:23.905Z,6.97
2023-03-11T00:53:52.321Z,5.63
2023-03-11T00:56:20.742Z,8.07
2023-03-11T00:58:49.147Z,7.23
2023-03-11T01:01:19.551Z,4.73
2023-03-11T01:03:48.106Z,8.67
2023-03-11T01:06:16.737Z,5.73
2023-03-11T01:08:45.145Z,2.93
2023-03-11T01:11:13.586Z,5.20
2023-03-11T01:13:41.965Z,6.60
2023-03-11T01:16:10.840Z,4.83
2023-03-11T01:18:40.586Z,5.13
2023-03-11T01:21:09.020Z,5.40
2023-03-11T01:23:37.406Z,3.73
2023-03-11T01:26:05.894Z,5.83
2023-03-11T01:28:34.309Z,5.17
2023-03-11T01:31:02.735Z,3.37
2023-03-11T01:33:31.165Z,5.83
2023-03-11T01:36:00.921Z,5.43
2023-03-11T01:38:29.313Z,4.40
2023-03-11T01:40:57.801Z,5.33
2023-03-11T01:43:56.029Z,4.50
2023-03-11T01:46:25.720Z,4.27
2023-03-11T01:48:55.373Z,4.17
2023-03-11T01:51:27.977Z,6.23
2023-03-11T01:53:56.724Z,9.83
2023-03-11T01:56:25.368Z,6.53
2023-03-11T01:58:55.636Z,10.10
2023-03-11T02:01:24.323Z,10.27
2023-03-11T02:03:52.778Z,15.97
2023-03-11T02:06:22.930Z,15.13
2023-03-11T02:08:52.880Z,15.83
2023-03-11T02:11:22.509Z,12.37
2023-03-11T02:13:50.983Z,13.43
2023-03-11T02:16:20.276Z,14.67
2023-03-11T02:18:48.690Z,18.17
2023-03-11T02:21:21.942Z,17.67
2023-03-11T02:23:56.904Z,12.60
2023-03-11T02:26:29.881Z,13.67
2023-03-11T02:29:00.317Z,10.40
2023-03-11T02:31:29.419Z,11.50
2023-03-11T02:33:59.782Z,12.87
2023-03-11T02:36:39.315Z,15.70
2023-03-11T02:39:08.409Z,12.67
2023-03-11T02:41:38.674Z,10.50
2023-03-11T02:44:09.111Z,8.67
2023-03-11T02:46:38.212Z,5.67
2023-03-11T02:49:07.173Z,8.37
2023-03-11T02:51:35.549Z,6.00
2023-03-11T02:54:06.071Z,7.33
2023-03-11T02:56:34.608Z,10.80
2023-03-11T02:59:02.943Z,5.23
2023-03-11T03:01:32.726Z,7.70
2023-03-11T03:04:01.172Z,5.90
2023-03-11T03:06:29.681Z,6.50
2023-03-11T03:08:58.284Z,7.13
2023-03-11T03:11:26.718Z,6.27
2023-03-11T03:13:55.117Z,4.67
2023-03-11T03:16:23.593Z,5.90
2023-03-11T03:18:53.408Z,4.10
2023-03-11T03:21:21.770Z,7.00
2023-03-11T03:23:50.147Z,5.00
2023-03-11T03:26:18.533Z,8.00
2023-03-11T03:28:47.247Z,4.83
2023-03-11T03:31:15.875Z,7.63
2023-03-11T03:33:44.338Z,7.13
2023-03-11T03:36:14.975Z,5.10
2023-03-11T03:38:43.602Z,6.97
2023-03-11T03:41:12.001Z,5.33
2023-03-11T03:43:40.316Z,4.80
2023-03-11T03:46:08.829Z,4.23
2023-03-11T03:48:37.286Z,7.93
2023-03-11T03:51:06.116Z,4.37
2023-03-11T03:53:37.015Z,10.53
2023-03-11T03:56:05.668Z,9.27
2023-03-11T03:58:34.317Z,7.57
2023-03-11T04:01:04.061Z,5.93
2023-03-11T04:03:33.819Z,4.60
2023-03-11T04:06:08.728Z,4.00
2023-03-11T04:08:38.628Z,7.67
2023-03-11T04:11:06.975Z,4.10
2023-03-11T04:13:35.395Z,6.57
2023-03-11T04:16:05.212Z,10.83
2023-03-11T04:18:33.558Z,9.20
2023-03-11T04:21:01.933Z,5.77
2023-03-11T04:23:30.489Z,6.27
2023-03-11T04:26:00.307Z,10.97
2023-03-11T04:28:29.001Z,5.57
2023-03-11T04:30:57.509Z,9.47
2023-03-11T04:33:26.086Z,6.53
2023-03-11T04:35:54.578Z,8.07
2023-03-11T04:38:23.057Z,4.67
2023-03-11T04:40:51.444Z,8.93
2023-03-11T04:43:21.226Z,10.20
2023-03-11T04:45:52.628Z,9.63
2023-03-11T04:48:21.027Z,5.70
2023-03-11T04:50:49.435Z,10.93
2023-03-11T04:53:17.928Z,15.70
2023-03-11T04:55:47.907Z,10.70
2023-03-11T04:58:16.433Z,5.60
2023-03-11T05:00:46.228Z,7.90
2023-03-11T05:03:14.619Z,5.73
2023-03-11T05:05:43.077Z,7.00
2023-03-11T05:08:11.482Z,5.63
2023-03-11T05:10:41.950Z,9.97
2023-03-11T05:13:10.363Z,7.20
2023-03-11T05:15:38.830Z,11.10
2023-03-11T05:18:08.732Z,3.70
2023-03-11T05:20:37.129Z,4.27
2023-03-11T05:23:05.601Z,8.30
2023-03-11T05:25:35.472Z,6.30
2023-03-11T05:28:03.847Z,4.17
2023-03-11T05:30:32.390Z,6.43
2023-03-11T05:33:00.957Z,7.37
2023-03-11T05:35:30.774Z,5.80
2023-03-11T05:37:59.169Z,6.13
2023-03-11T05:40:27.631Z,9.97
2023-03-11T05:42:55.989Z,12.03
2023-03-11T05:45:24.358Z,11.67
2023-03-11T05:47:53.756Z,15.57
2023-03-11T05:50:22.273Z,8.67
2023-03-11T05:52:52.047Z,7.97
2023-03-11T05:55:20.635Z,12.07
2023-03-11T05:57:49.934Z,7.50
2023-03-11T06:00:20.562Z,7.73
2023-03-11T06:02:48.981Z,9.53
2023-03-11T06:05:17.631Z,13.20
2023-03-11T06:07:46.161Z,8.23
2023-03-11T06:10:16.408Z,7.50
2023-03-11T06:12:44.753Z,11.50
2023-03-11T06:15:13.175Z,7.43
2023-03-11T06:17:41.580Z,7.27
2023-03-11T06:20:10.936Z,8.90
2023-03-11T06:22:40.375Z,8.60
2023-03-11T06:25:09.349Z,5.80
2023-03-11T06:27:39.036Z,5.63
2023-03-11T06:30:07.868Z,11.23
2023-03-11T06:32:37.303Z,6.30
2023-03-11T06:35:06.005Z,5.13
2023-03-11T06:37:37.420Z,8.20
2023-03-11T06:40:07.518Z,7.97
2023-03-11T06:42:35.940Z,8.57
2023-03-11T06:45:05.930Z,4.83
2023-03-11T06:47:34.323Z,4.93
2023-03-11T06:50:06.613Z,6.20
2023-03-11T06:52:35.104Z,5.03
2023-03-11T06:55:04.031Z,5.20
2023-03-11T06:57:32.686Z,9.03
2023-03-11T07:00:01.113Z,4.90
2023-03-11T07:02:30.926Z,4.53
2023-03-11T07:04:59.289Z,5.90
2023-03-11T07:07:27.724Z,3.77
2023-03-11T07:09:57.639Z,5.77
2023-03-11T07:12:26.146Z,3.53
2023-03-11T07:14:56.976Z,6.90
2023-03-11T07:17:25.704Z,7.70
2023-03-11T07:19:55.514Z,6.03
2023-03-11T07:22:23.976Z,7.70
2023-03-11T07:24:52.484Z,5.47
2023-03-11T07:27:21.130Z,5.97
2023-03-11T07:29:49.656Z,8.83
2023-03-11T07:32:18.121Z,8.50
2023-03-11T07:34:46.658Z,7.27
2023-03-11T07:37:16.464Z,4.30
2023-03-11T07:39:44.835Z,7.87
2023-03-11T07:42:13.251Z,6.93
2023-03-11T07:44:41.744Z,6.97
2023-03-11T07:47:10.144Z,4.50
2023-03-11T07:49:38.545Z,8.07
2023-03-11T07:52:07.290Z,6.13
2023-03-11T07:54:37.013Z,4.53
2023-03-11T07:57:05.848Z,5.53
2023-03-11T07:59:34.213Z,8.67
2023-03-11T08:02:04.855Z,5.83
2023-03-11T08:04:33.263Z,9.07
2023-03-11T08:07:01.726Z,7.27
2023-03-11T08:09:30.435Z,7.20
2023-03-11T08:12:00.223Z,6.77
2023-03-11T08:14:28.923Z,4.73
2023-03-11T08:16:57.357Z,5.50
2023-03-11T08:19:25.901Z,8.40
2023-03-11T08:21:54.417Z,6.67
2023-03-11T08:24:22.915Z,8.10
2023-03-11T08:26:51.287Z,7.63
2023-03-11T08:29:21.011Z,10.18
2023-03-11T08:31:49.404Z,5.78
2023-03-11T08:34:17.850Z,6.82
2023-03-11T08:36:46.434Z,5.95
2023-03-11T08:39:14.949Z,5.70
2023-03-11T08:41:43.368Z,5.10
2023-03-11T08:44:11.894Z,6.00
2023-03-11T08:46:41.731Z,4.57
2023-03-11T08:49:10.211Z,5.55
2023-03-11T08:51:38.690Z,5.15
2023-03-11T08:54:07.229Z,5.93
2023-03-11T08:56:35.637Z,4.05
2023-03-11T08:59:04.314Z,4.07
2023-03-11T09:01:32.723Z,3.13
2023-03-11T09:04:02.489Z,6.22
2023-03-11T09:06:30.995Z,5.65
2023-03-11T09:08:59.363Z,3.67
2023-03-11T09:11:27.803Z,2.95
2023-03-11T09:13:56.206Z,6.45
2023-03-11T09:16:25.082Z,4.35
2023-03-11T09:18:53.453Z,4.57
2023-03-11T09:21:23.288Z,4.45
2023-03-11T09:23:51.676Z,4.20
2023-03-11T09:26:20.040Z,6.75
2023-03-11T09:28:49.474Z,5.32
2023-03-11T09:31:18.120Z,5.55
2023-03-11T09:33:47.260Z,4.10
2023-03-11T09:36:16.601Z,4.28
2023-03-11T09:38:46.805Z,5.45
2023-03-11T09:41:20.665Z,3.10
2023-03-11T09:43:55.487Z,4.38
2023-03-11T09:46:42.370Z,1.80
2023-03-11T09:49:15.155Z,3.80
2023-03-11T09:51:45.140Z,3.40
2023-03-11T09:54:15.539Z,4.40
2023-03-11T09:56:44.697Z,4.10
2023-03-11T09:59:17.351Z,5.05
2023-03-11T10:01:47.315Z,4.22
2023-03-11T10:04:18.800Z,3.95
2023-03-11T10:06:47.988Z,8.13
2023-03-11T10:09:28.282Z,5.15
2023-03-11T10:12:01.446Z,5.47
2023-03-11T10:14:37.046Z,6.25
2023-03-11T10:17:09.348Z,4.90
2023-03-11T10:19:42.323Z,5.00
2023-03-11T10:22:15.950Z,4.63
2023-03-11T10:24:52.440Z,4.22
2023-03-11T10:27:22.960Z,3.60
2023-03-11T10:29:54.948Z,2.90
2023-03-11T10:32:26.529Z,5.65
2023-03-11T10:34:58.383Z,3.33
2023-03-11T10:37:36.042Z,8.65
2023-03-11T10:40:21.523Z,3.25
2023-03-11T10:42:53.480Z,4.40
2023-03-11T10:45:23.399Z,3.83
2023-03-11T10:47:52.046Z,3.80
2023-03-11T10:50:21.780Z,5.93
2023-03-11T10:53:05.063Z,3.75
2023-03-11T10:55:34.911Z,3.25
2023-03-11T10:58:07.582Z,3.33
2023-03-11T11:00:36.180Z,3.35
2023-03-11T11:03:06.694Z,2.97
2023-03-11T11:05:36.696Z,6.57
2023-03-11T11:08:08.097Z,5.20
2023-03-11T11:10:38.621Z,6.63
2023-03-11T11:13:19.125Z,5.90
2023-03-11T11:15:57.343Z,7.35
2023-03-11T11:18:27.521Z,4.97
2023-03-11T11:20:57.804Z,3.70
2023-03-11T11:23:30.132Z,4.97
2023-03-11T11:26:01.669Z,3.75
2023-03-11T11:28:30.148Z,3.55
2023-03-11T11:30:59.560Z,5.03
2023-03-11T11:33:29.511Z,4.65
2023-03-11T11:35:59.108Z,3.53
2023-03-11T11:38:29.015Z,2.28
2023-03-11T11:40:58.851Z,5.70
2023-03-11T11:43:34.678Z,3.25
2023-03-11T11:46:04.597Z,3.30
2023-03-11T11:48:36.535Z,4.03
2023-03-11T11:51:08.915Z,3.75
2023-03-11T11:53:41.754Z,3.97
2023-03-11T11:56:10.237Z,6.32
2023-03-11T11:58:42.094Z,6.68
2023-03-11T12:01:17.052Z,5.22
2023-03-11T12:04:04.808Z,5.15
2023-03-11T12:06:35.638Z,4.05
2023-03-11T12:09:08.548Z,5.50
2023-03-11T12:11:41.831Z,6.38
2023-03-11T12:14:13.855Z,5.13
2023-03-11T12:16:46.287Z,2.97
2023-03-11T12:19:32.638Z,2.75
2023-03-11T12:22:15.995Z,2.95
2023-03-11T12:25:01.460Z,9.10
2023-03-11T12:27:33.167Z,10.82
2023-03-11T12:30:05.213Z,6.50
2023-03-11T12:32:35.629Z,5.60
2023-03-11T12:35:05.701Z,5.35
2023-03-11T12:37:34.120Z,9.07
2023-03-11T12:40:02.617Z,6.70
2023-03-11T12:42:41.410Z,6.30
2023-03-11T12:45:30.602Z,10.85
2023-03-11T12:48:13.880Z,6.47
2023-03-11T12:50:44.766Z,5.63
2023-03-11T12:53:18.505Z,4.78
2023-03-11T12:56:01.293Z,10.30
2023-03-11T12:58:34.769Z,6.32
2023-03-11T13:01:08.098Z,5.10
2023-03-11T13:03:46.582Z,11.38
2023-03-11T13:06:22.998Z,11.88
2023-03-11T13:08:52.576Z,10.45
2023-03-11T13:11:36.860Z,7.25
2023-03-11T13:14:12.402Z,3.05
2023-03-11T13:16:41.550Z,6.60
2023-03-11T13:19:28.788Z,4.70
2023-03-11T13:21:59.699Z,1.85
2023-03-11T13:24:51.230Z,5.30
2023-03-11T13:27:27.699Z,3.45
2023-03-11T13:29:59.274Z,7.28
2023-03-11T13:32:31.186Z,4.72
2023-03-11T13:35:05.087Z,3.72
2023-03-11T13:37:39.829Z,6.07
2023-03-11T13:40:14.260Z,4.63
2023-03-11T13:42:46.394Z,5.10
2023-03-11T13:45:24.076Z,7.43
2023-03-11T13:47:53.441Z,5.25
2023-03-11T13:50:25.321Z,4.30
2023-03-11T13:52:55.999Z,2.63
2023-03-11T13:55:27.204Z,5.40
2023-03-11T13:57:56.476Z,4.70
2023-03-11T14:00:27.969Z,2.88
2023-03-11T14:02:57.068Z,3.15
2023-03-11T14:05:26.883Z,3.03
2023-03-11T14:07:56.721Z,3.05
2023-03-11T14:10:28.054Z,2.78
2023-03-11T14:13:14.104Z,2.40
2023-03-11T14:15:47.948Z,2.80
2023-03-11T14:18:33.331Z,3.80
2023-03-11T14:21:02.553Z,4.82
2023-03-11T14:23:35.510Z,4.15
2023-03-11T14:26:05.745Z,2.30
2023-03-11T14:28:35.960Z,7.05
2023-03-11T14:31:05.346Z,2.05
2023-03-11T14:33:33.828Z,3.38
2023-03-11T14:36:04.078Z,3.72
2023-03-11T14:38:34.634Z,3.10
2023-03-11T14:41:04.596Z,4.50
2023-03-11T14:43:35.424Z,5.13
2023-03-11T14:46:05.278Z,3.47
2023-03-11T14:48:36.736Z,4.40
2023-03-11T14:51:06.292Z,3.40
2023-03-11T14:53:39.164Z,5.75
2023-03-11T14:56:08.735Z,3.25
2023-03-11T14:58:38.883Z,3.78
2023-03-11T15:01:08.965Z,3.13
2023-03-11T15:03:40.266Z,3.78
2023-03-11T15:06:10.560Z,7.30
2023-03-11T15:08:44.948Z,3.95
2023-03-11T15:11:20.903Z,4.07
2023-03-11T15:13:51.329Z,3.28
2023-03-11T15:16:27.628Z,3.08
2023-03-11T15:18:56.191Z,2.50
2023-03-11T15:21:25.430Z,4.07
2023-03-11T15:23:58.250Z,4.03
2023-03-11T15:26:27.639Z,3.05
2023-03-11T15:28:57.741Z,2.75
2023-03-11T15:31:33.693Z,2.80
2023-03-11T15:34:26.281Z,2.85
2023-03-11T15:37:02.843Z,2.58
2023-03-11T15:39:45.003Z,2.75
2023-03-11T15:42:15.511Z,1.95
2023-03-11T15:44:45.088Z,2.97
2023-03-11T15:47:15.261Z,4.57
2023-03-11T15:49:43.920Z,3.58
2023-03-11T15:52:12.617Z,2.03
2023-03-11T15:54:41.099Z,1.75
2023-03-11T15:57:12.868Z,3.33
2023-03-11T15:59:45.368Z,3.90
2023-03-11T16:02:21.435Z,5.07
2023-03-11T16:04:50.341Z,6.20
2023-03-11T16:07:32.806Z,2.30
2023-03-11T16:10:07.375Z,3.40
2023-03-11T16:12:37.219Z,2.25
2023-03-11T16:15:06.031Z,3.03
2023-03-11T16:17:48.991Z,3.55
2023-03-11T16:20:18.187Z,3.75
2023-03-11T16:22:46.608Z,2.53
2023-03-11T16:25:20.126Z,2.85
2023-03-11T16:27:50.284Z,3.40
2023-03-11T16:30:19.190Z,2.08
2023-03-11T16:32:47.654Z,4.22
2023-03-11T16:35:16.340Z,3.20
2023-03-11T16:37:46.232Z,3.72
2023-03-11T16:40:16.369Z,2.35
2023-03-11T16:42:44.769Z,5.43
2023-03-11T16:45:15.242Z,3.03
2023-03-11T16:47:43.665Z,2.83
2023-03-11T16:50:12.826Z,6.07
2023-03-11T16:52:41.353Z,5.13
2023-03-11T16:55:10.315Z,6.53
2023-03-11T16:57:39.494Z,4.32
2023-03-11T17:00:09.839Z,3.17
2023-03-11T17:02:40.100Z,2.67
2023-03-11T17:05:09.099Z,2.28
2023-03-11T17:07:39.533Z,2.85
2023-03-11T17:10:08.965Z,3.63
2023-03-11T17:12:37.420Z,3.03
2023-03-11T17:15:06.919Z,2.55
2023-03-11T17:17:35.387Z,4.22
2023-03-11T17:20:06.490Z,3.17
2023-03-11T17:22:34.922Z,4.15
2023-03-11T17:25:03.507Z,3.63
2023-03-11T17:27:33.170Z,3.78
2023-03-11T17:30:01.859Z,3.65
2023-03-11T17:32:30.294Z,6.07
2023-03-11T17:34:58.763Z,3.53
2023-03-11T17:37:28.565Z,3.97
2023-03-11T17:39:57.011Z,4.70
2023-03-11T17:42:25.713Z,3.78
2023-03-11T17:44:57.006Z,2.72
2023-03-11T17:47:26.996Z,4.57
2023-03-11T17:49:55.756Z,4.03
2023-03-11T17:52:24.197Z,1.95
2023-03-11T17:54:53.988Z,2.03
2023-03-11T17:57:22.584Z,2.08
2023-03-11T17:59:52.664Z,2.13
2023-03-11T18:02:21.342Z,3.42
2023-03-11T18:04:53.930Z,4.75
2023-03-11T18:07:23.775Z,3.88
2023-03-11T18:09:54.273Z,6.03
2023-03-11T18:12:22.825Z,4.30
2023-03-11T18:14:51.261Z,5.57
2023-03-11T18:17:21.641Z,5.57
2023-03-11T18:19:50.332Z,5.03
2023-03-11T18:22:18.764Z,4.97
2023-03-11T18:24:47.139Z,6.45
2023-03-11T18:27:16.952Z,7.03
2023-03-11T18:29:45.476Z,7.80
2023-03-11T18:32:13.928Z,7.53
2023-03-11T18:34:42.433Z,6.78
2023-03-11T18:37:10.862Z,8.60
2023-03-11T18:39:39.359Z,8.50
2023-03-11T18:42:08.248Z,12.95
2023-03-11T18:44:38.053Z,10.82
2023-03-11T18:47:06.822Z,9.80
2023-03-11T18:49:35.337Z,10.07
2023-03-11T18:52:03.795Z,6.28
2023-03-11T18:54:32.397Z,11.45
2023-03-11T18:57:00.856Z,8.95
2023-03-11T18:59:29.307Z,8.27
2023-03-11T19:01:59.121Z,12.57
2023-03-11T19:04:28.513Z,10.18
2023-03-11T19:06:57.045Z,14.60
2023-03-11T19:09:25.480Z,15.60
2023-03-11T19:11:53.939Z,19.08
2023-03-11T19:14:22.382Z,12.70
2023-03-11T19:16:50.874Z,14.75
2023-03-11T19:19:20.694Z,13.38
2023-03-11T19:21:49.312Z,12.33
2023-03-11T19:24:17.807Z,7.77
2023-03-11T19:26:46.438Z,8.77
2023-03-11T19:29:15.089Z,8.00
2023-03-11T19:31:45.364Z,5.80
2023-03-11T19:34:13.865Z,7.53
2023-03-11T19:36:43.719Z,4.87
2023-03-11T19:39:12.134Z,9.00
2023-03-11T19:41:40.583Z,8.50
2023-03-11T19:44:09.027Z,5.23
2023-03-11T19:46:37.522Z,8.03
2023-03-11T19:49:06.089Z,11.77
2023-03-11T19:51:48.593Z,7.70
2023-03-11T19:54:19.740Z,7.73
2023-03-11T19:56:48.438Z,7.47
2023-03-11T19:59:17.222Z,10.90
2023-03-11T20:01:45.943Z,7.13
2023-03-11T20:04:15.287Z,7.27
2023-03-11T20:06:44.277Z,8.70
2023-03-11T20:09:13.308Z,8.97
2023-03-11T20:11:43.307Z,7.43
2023-03-11T20:14:12.251Z,8.83
2023-03-11T20:16:41.065Z,6.93
2023-03-11T20:19:09.698Z,9.03
2023-03-11T20:21:40.903Z,9.10
2023-03-11T20:24:10.015Z,21.00
2023-03-11T20:26:38.759Z,17.30
2023-03-11T20:29:08.653Z,21.60
2023-03-11T20:31:37.424Z,24.03
2023-03-11T20:34:06.111Z,21.17
2023-03-11T20:36:35.358Z,24.77
2023-03-11T20:39:04.443Z,19.77
2023-03-11T20:41:37.365Z,14.90
2023-03-11T20:44:06.684Z,12.87
2023-03-11T20:46:36.683Z,13.67
2023-03-11T20:49:05.449Z,11.57
2023-03-11T20:51:33.981Z,11.43
2023-03-11T20:54:02.629Z,9.27
2023-03-11T20:56:31.083Z,8.43
2023-03-11T20:59:00.994Z,10.23
2023-03-11T21:01:30.744Z,10.60
2023-03-11T21:04:01.688Z,7.83
2023-03-11T21:06:31.782Z,7.53
2023-03-11T21:09:01.404Z,9.93
2023-03-11T21:11:29.836Z,8.10
2023-03-11T21:13:58.716Z,8.93
2023-03-11T21:16:28.222Z,13.10
2023-03-11T21:18:56.974Z,8.80
2023-03-11T21:21:26.947Z,10.27
2023-03-11T21:23:56.044Z,12.13
2023-03-11T21:26:24.662Z,11.30
2023-03-11T21:28:53.120Z,15.47
2023-03-11T21:31:22.463Z,11.30
2023-03-11T21:33:53.973Z,13.33
2023-03-11T21:36:22.763Z,7.47
2023-03-11T21:38:53.033Z,8.03
2023-03-11T21:41:23.786Z,6.50
2023-03-11T21:43:52.648Z,7.63
2023-03-11T21:46:22.292Z,6.53
2023-03-11T21:48:50.914Z,6.43
2023-03-11T21:51:20.684Z,8.37
2023-03-11T21:53:49.497Z,8.67
2023-03-11T21:56:19.726Z,7.30
2023-03-11T21:58:49.943Z,10.23
2023-03-11T22:01:18.461Z,9.50
2023-03-11T22:03:48.461Z,9.23
2023-03-11T22:06:17.406Z,6.40
2023-03-11T22:08:46.293Z,12.27
2023-03-11T22:11:17.747Z,10.97
2023-03-11T22:13:49.087Z,7.33
2023-03-11T22:16:18.022Z,8.00
2023-03-11T22:18:47.131Z,9.27
2023-03-11T22:21:16.430Z,10.10
2023-03-11T22:23:45.365Z,6.50
2023-03-11T22:26:14.128Z,13.10
2023-03-11T22:28:42.608Z,10.23
2023-03-11T22:31:13.686Z,10.00
2023-03-11T22:33:42.987Z,7.43
2023-03-11T22:36:11.786Z,9.40
2023-03-11T22:38:42.282Z,7.87
2023-03-11T22:41:10.776Z,8.37
2023-03-11T22:43:39.595Z,10.33
2023-03-11T22:46:08.869Z,7.13
2023-03-11T22:48:38.827Z,7.57
2023-03-11T22:51:07.581Z,8.27
2023-03-11T22:53:36.054Z,8.70
2023-03-11T22:56:08.154Z,8.47
2023-03-11T22:58:36.602Z,7.73
2023-03-11T23:01:05.130Z,10.33
2023-03-11T23:03:33.910Z,10.20
2023-03-11T23:06:04.233Z,9.93
2023-03-11T23:08:32.865Z,7.53
2023-03-11T23:11:03.576Z,7.67
2023-03-11T23:13:32.183Z,10.27
2023-03-11T23:16:04.801Z,6.87
2023-03-11T23:18:33.337Z,7.47
2023-03-11T23:21:01.764Z,9.03
2023-03-11T23:23:31.896Z,7.40
2023-03-11T23:26:00.524Z,9.80
2023-03-11T23:28:29.067Z,10.17
2023-03-11T23:30:57.525Z,7.47
2023-03-11T23:33:28.378Z,9.50
2023-03-11T23:35:56.826Z,7.03
2023-03-11T23:38:25.292Z,8.10
2023-03-11T23:40:56.081Z,5.60
2023-03-11T23:43:24.795Z,8.87
2023-03-11T23:45:53.700Z,7.00
2023-03-11T23:48:22.219Z,7.60
2023-03-11T23:50:51.340Z,5.73
2023-03-11T23:53:21.423Z,8.33
2023-03-11T23:55:50.582Z,7.77
2023-03-11T23:58:20.543Z,10.67
